"WATCHING THE WEATHER TO PROTECT LIFE AND PROPERTY"


Aviation
Satellite (InfraRed)


TNCA 160900Z 11010KT 9999 FEW017 26/24 Q1013 NOSIG
TNCB 160855Z AUTO 10013KT //// // FEW018/// 27/24 Q1014 RE//
TNCC 160900Z AUTO 12009KT 9999 SCT019 27/23 Q1014 NOSIG
TNCM 160900Z 09014KT 9999 SCT016 28/23 Q1018 A3006 RMK LGT HZ ALQDS